This is the latest recevied weather packets stored in our database for station/object W7TRD. If no packets are shown the sender has not sent any weather packets the latest 10 day(s).
| Time | Temp. | Humidity | Pressure | Rain* | Wind** | Luminosity | Snow |
|---|---|---|---|---|---|---|---|
| 1777866134 | 26.11° C | 45% | 1007.6 hPa | 0 mm | - | 0 W/m² | - |
| 1777865831 | 26.11° C | 44% | 1007.7 hPa | 0 mm | - | 0 W/m² | - |
| 1777864012 | 27.78° C | 41% | 1007.5 hPa | 0 mm | - | 9 W/m² | - |
| 1777863103 | 28.33° C | 40% | 1007.6 hPa | 0 mm | - | 18 W/m² | - |
| 1777847947 | 33.33° C | 31% | 1009.2 hPa | 0 mm | - | 580 W/m² | - |
| 1777847645 | 33.89° C | 31% | 1009.2 hPa | 0 mm | - | 587 W/m² | - |
| 1777845221 | 33.33° C | 31% | 1009.7 hPa | 0 mm | - | 656 W/m² | - |
| 1777843708 | 33.33° C | 31% | 1010 hPa | 0 mm | - | 690 W/m² | - |
| 1777843406 | 32.78° C | 32% | 1010.1 hPa | 0 mm | - | 697 W/m² | - |
| 1777843103 | 33.33° C | 33% | 1010.1 hPa | 0 mm | - | 702 W/m² | - |
| 1777842799 | 32.78° C | 33% | 1010 hPa | 0 mm | - | 708 W/m² | - |
| 1777842504 | 32.78° C | 35% | 1010.3 hPa | 0 mm | - | 712 W/m² | - |
| 1777842197 | 32.78° C | 34% | 1010.4 hPa | 0 mm | - | 716 W/m² | - |
| 1777841892 | 32.78° C | 34% | 1010.3 hPa | 0 mm | - | 719 W/m² | - |
| 1777841589 | 32.22° C | 35% | 1010.3 hPa | 0 mm | - | 723 W/m² | - |
| 1777840680 | 32.22° C | 35% | 1010.7 hPa | 0 mm | - | 732 W/m² | - |
| 1777840074 | 31.11° C | 38% | 1010.8 hPa | 0 mm | - | 737 W/m² | - |
| 1777839772 | 30.56° C | 38% | 1010.8 hPa | 0 mm | - | 740 W/m² | - |
| 1777838560 | 30.56° C | 42% | 1011 hPa | 0 mm | - | 744 W/m² | - |
| 1777837954 | 30° C | 43% | 1011.2 hPa | 0 mm | - | 744 W/m² | - |
| 1777837652 | 30° C | 44% | 1011.4 hPa | 0 mm | - | 743 W/m² | - |
| 1777836739 | 28.89° C | 45% | 1011.3 hPa | 0 mm | - | 738 W/m² | - |
| 1777836435 | 28.33° C | 46% | 1011.4 hPa | 0 mm | - | 737 W/m² | - |
| 1777835525 | 28.33° C | 45% | 1011.7 hPa | 0 mm | - | 728 W/m² | - |
| 1777833096 | 27.22° C | 47% | 1012.2 hPa | 0 mm | - | 688 W/m² | - |
* Rain latest hour (hover to see other rain measurements)
** Current wind speed in m/s (hover to see current wind gust speed)